Los Chavez, New Mexico
Current Conditions -  °F | °C
As of 3:15 PM on Wednesday 28 Jan 2015 (Local Time) from KE80 Reporting Station
Clear Clear  
Wind Chill: 64°   Ceiling: Unl
Heat Index: 64°   Visibility: 10mi
Dew Point: 31°   Wind: 6mph
Humidity: 29%   Direction: 320°NW
Pressure: 30.15"   Gusts: NA
Location:  34.5756°N, 106.588°W
Report Text: KE80 282215Z AUTO 32005KT 10SM CLR 18/00 A3015 RMK AO2 T01761005
Loading
Personal Weather Stations






























Interactive Weather Map New forecast layout! Learn more

10-Day Weather Forecast

Advertisements
Track Severe Weather on mobile